Archival Weather

Pemba

Pemba, Mozambique (FQPB)

Report from: Saturday, April 1, 2023 11:00 PM CAT
Current time: Monday, July 22, 2024 1:59 PM CAT

Current weather – Weather history – Daily summaries
Weather forecast

Temperature24.0°C (75.2°F)
Dew point23.0°C (73.4°F)
Winds 6 kts (3.1 m/s, 6.9 mph) Vrb
Winds variableWinds variable from South (170°) to West-Southwest (250°)
Visibility6.2 mi. (10 km)
Clouds Ceiling: Broken clouds 0 ft. (0 m)
Few clouds 2,000 ft. (610 m)
Few clouds with cumulonimbus 2,500 ft. (762 m)
Broken clouds 9,000 ft. (2,743 m)
Altimeter29.94 in.Hg (1014 mB)
Relative humidity94 %
Density altitude1,396 ft. (425 m)
Remarks Cumulonimbus clouds observed northwest
Flight conditions Low Instrument Meteorological Conditions
Raw dataFQPB 012100Z 21006KT 170V250 9999 FEW020 FEW025CB BKN090 BKN/// 24/23 Q1014 RERA RMK CB TO W/ NW
An error has occurred. This application may no longer respond until reloaded. Reload 🗙